createdAt,value
2022-10-10T00:01:09.825Z,2.70
2022-10-10T00:03:37.152Z,2.72
2022-10-10T00:06:04.630Z,2.38
2022-10-10T00:08:32.042Z,2.38
2022-10-10T00:10:59.477Z,2.78
2022-10-10T00:13:26.908Z,2.30
2022-10-10T00:15:54.225Z,2.65
2022-10-10T00:18:23.585Z,2.15
2022-10-10T00:20:51.971Z,2.25
2022-10-10T00:23:20.432Z,2.42
2022-10-10T00:25:48.092Z,2.30
2022-10-10T00:28:16.343Z,2.25
2022-10-10T00:30:44.324Z,2.50
2022-10-10T00:33:12.232Z,2.40
2022-10-10T00:35:39.869Z,2.40
2022-10-10T00:38:07.741Z,2.20
2022-10-10T00:40:35.250Z,2.47
2022-10-10T00:43:02.571Z,2.20
2022-10-10T00:45:35.834Z,2.60
2022-10-10T00:48:35.210Z,2.90
2022-10-10T00:51:11.457Z,2.35
2022-10-10T00:53:44.424Z,2.63
2022-10-10T00:56:14.011Z,1.92
2022-10-10T00:58:45.067Z,2.20
2022-10-10T01:01:12.637Z,2.30
2022-10-10T01:03:40.065Z,2.00
2022-10-10T01:06:08.128Z,2.00
2022-10-10T01:08:36.188Z,2.60
2022-10-10T01:11:21.639Z,2.35
2022-10-10T01:14:06.885Z,2.00
2022-10-10T01:17:22.330Z,2.60
2022-10-10T01:20:14.604Z,2.47
2022-10-10T01:22:56.822Z,2.05
2022-10-10T01:28:38.512Z,2.63
2022-10-10T01:31:08.774Z,2.58
2022-10-10T01:34:04.439Z,2.42
2022-10-10T01:36:38.538Z,2.40
2022-10-10T01:39:30.338Z,2.40
2022-10-10T01:42:08.061Z,2.67
2022-10-10T01:44:35.443Z,2.30
2022-10-10T01:47:02.722Z,2.30
2022-10-10T01:49:33.165Z,2.30
2022-10-10T01:52:21.575Z,2.22
2022-10-10T01:55:13.474Z,2.30
2022-10-10T01:58:13.337Z,2.30
2022-10-10T02:00:50.382Z,3.00
2022-10-10T02:03:29.587Z,2.67
2022-10-10T02:06:07.490Z,2.50
2022-10-10T02:08:45.697Z,2.67
2022-10-10T02:11:13.437Z,2.08
2022-10-10T02:13:47.518Z,3.13
2022-10-10T02:16:29.301Z,2.47
2022-10-10T02:18:59.791Z,2.70
2022-10-10T02:21:28.721Z,2.60
2022-10-10T02:24:02.469Z,2.67
2022-10-10T02:26:32.020Z,2.67
2022-10-10T02:29:15.266Z,2.50
2022-10-10T02:32:01.329Z,2.60
2022-10-10T02:34:35.162Z,2.92
2022-10-10T02:37:07.831Z,2.47
2022-10-10T02:39:38.970Z,2.30
2022-10-10T02:42:08.411Z,2.80
2022-10-10T02:44:37.117Z,2.53
2022-10-10T02:47:04.555Z,2.75
2022-10-10T02:49:34.696Z,2.70
2022-10-10T02:52:03.497Z,2.85
2022-10-10T02:54:30.872Z,2.47
2022-10-10T02:56:58.241Z,2.70
2022-10-10T02:59:27.758Z,2.30
2022-10-10T03:01:55.090Z,2.50
2022-10-10T03:04:22.472Z,2.50
2022-10-10T03:06:49.868Z,2.13
2022-10-10T03:09:19.777Z,2.47
2022-10-10T03:11:47.116Z,2.33
2022-10-10T03:14:14.459Z,2.28
2022-10-10T03:16:41.860Z,2.53
2022-10-10T03:19:09.678Z,2.22
2022-10-10T03:21:37.039Z,2.70
2022-10-10T03:24:05.430Z,2.80
2022-10-10T03:26:32.927Z,2.75
2022-10-10T03:29:02.639Z,2.45
2022-10-10T03:31:32.974Z,2.47
2022-10-10T03:34:00.489Z,2.38
2022-10-10T03:36:28.208Z,2.30
2022-10-10T03:38:56.535Z,2.47
2022-10-10T03:41:23.882Z,2.55
2022-10-10T03:43:51.191Z,2.30
2022-10-10T03:46:18.942Z,2.35
2022-10-10T03:48:49.181Z,2.22
2022-10-10T03:51:16.573Z,2.25
2022-10-10T03:53:43.913Z,2.47
2022-10-10T03:56:11.473Z,2.40
2022-10-10T03:58:38.815Z,2.35
2022-10-10T04:01:07.641Z,2.28
2022-10-10T04:03:37.859Z,2.50
2022-10-10T04:06:05.538Z,2.28
2022-10-10T04:08:32.878Z,2.22
2022-10-10T04:11:00.649Z,2.40
2022-10-10T04:13:27.984Z,2.20
2022-10-10T04:15:57.059Z,2.40
2022-10-10T04:18:25.402Z,2.00
2022-10-10T04:20:52.898Z,2.60
2022-10-10T04:23:20.906Z,2.20
2022-10-10T04:25:51.812Z,2.53
2022-10-10T04:28:19.372Z,2.30
2022-10-10T04:30:46.804Z,2.60
2022-10-10T04:33:14.341Z,2.53
2022-10-10T04:35:41.698Z,2.55
2022-10-10T04:38:09.258Z,2.08
2022-10-10T04:40:37.970Z,2.30
2022-10-10T04:43:05.433Z,2.40
2022-10-10T04:45:36.647Z,2.47
2022-10-10T04:48:07.894Z,2.25
2022-10-10T04:50:35.255Z,2.28
2022-10-10T04:53:02.589Z,2.38
2022-10-10T04:55:30.025Z,2.80
2022-10-10T04:57:57.331Z,2.70
2022-10-10T05:00:25.025Z,2.38
2022-10-10T05:02:52.663Z,2.30
2022-10-10T05:05:20.212Z,2.28
2022-10-10T05:07:50.642Z,2.65
2022-10-10T05:10:24.273Z,2.45
2022-10-10T05:12:52.692Z,2.37
2022-10-10T05:15:21.943Z,2.20
2022-10-10T05:17:49.231Z,2.40
2022-10-10T05:20:16.598Z,2.72
2022-10-10T05:22:44.760Z,2.85
2022-10-10T05:25:12.182Z,2.45
2022-10-10T05:27:39.494Z,2.63
2022-10-10T05:30:08.577Z,2.63
2022-10-10T05:32:36.095Z,2.80
2022-10-10T05:35:04.709Z,2.92
2022-10-10T05:37:32.726Z,2.50
2022-10-10T05:40:00.058Z,2.28
2022-10-10T05:42:27.909Z,2.50
2022-10-10T05:44:55.233Z,2.15
2022-10-10T05:47:27.664Z,2.53
2022-10-10T05:49:55.638Z,2.35
2022-10-10T05:52:22.957Z,2.33
2022-10-10T05:54:50.246Z,2.88
2022-10-10T05:57:17.559Z,2.33
2022-10-10T05:59:45.033Z,3.75
2022-10-10T06:02:13.913Z,2.58
2022-10-10T06:04:41.783Z,2.75
2022-10-10T06:07:09.653Z,2.67
2022-10-10T06:09:37.219Z,2.58
2022-10-10T06:12:04.571Z,2.80
2022-10-10T06:14:32.081Z,2.60
2022-10-10T06:16:59.389Z,2.67
2022-10-10T06:19:26.706Z,2.60
2022-10-10T06:21:55.181Z,2.80
2022-10-10T06:24:22.577Z,2.83
2022-10-10T06:26:49.951Z,2.78
2022-10-10T06:29:17.216Z,3.10
2022-10-10T06:31:44.647Z,2.92
2022-10-10T06:34:12.082Z,2.50
2022-10-10T06:36:39.488Z,3.25
2022-10-10T06:39:06.795Z,2.92
2022-10-10T06:41:34.221Z,2.63
2022-10-10T06:44:11.472Z,3.28
2022-10-10T06:46:38.850Z,3.75
2022-10-10T06:49:06.330Z,2.80
2022-10-10T06:51:33.831Z,3.10
2022-10-10T06:54:01.183Z,3.00
2022-10-10T06:56:28.600Z,3.35
2022-10-10T06:58:56.355Z,3.40
2022-10-10T07:01:25.210Z,3.55
2022-10-10T07:03:52.845Z,3.15
2022-10-10T07:06:20.608Z,3.40
2022-10-10T07:08:48.113Z,3.50
2022-10-10T07:11:15.606Z,3.53
2022-10-10T07:13:42.940Z,3.67
2022-10-10T07:16:10.982Z,3.83
2022-10-10T07:18:38.831Z,3.40
2022-10-10T07:21:06.412Z,3.05
2022-10-10T07:23:33.846Z,2.90
2022-10-10T07:26:04.593Z,3.22
2022-10-10T07:28:32.315Z,3.33
2022-10-10T07:31:02.008Z,3.10
2022-10-10T07:33:37.267Z,2.97
2022-10-10T07:36:05.417Z,3.28
2022-10-10T07:38:33.370Z,2.80
2022-10-10T07:41:00.658Z,3.08
2022-10-10T07:43:28.051Z,3.22
2022-10-10T07:45:55.506Z,3.83
2022-10-10T07:48:22.866Z,3.10
2022-10-10T07:50:50.224Z,3.42
2022-10-10T07:53:17.777Z,3.35
2022-10-10T07:55:45.235Z,3.67
2022-10-10T07:58:13.130Z,3.15
2022-10-10T08:00:44.032Z,3.92
2022-10-10T08:03:12.492Z,3.42
2022-10-10T08:05:44.254Z,3.10
2022-10-10T08:08:11.944Z,3.53
2022-10-10T08:10:43.801Z,3.38
2022-10-10T08:13:11.170Z,3.20
2022-10-10T08:15:41.899Z,3.58
2022-10-10T08:18:09.765Z,4.13
2022-10-10T08:20:37.058Z,3.63
2022-10-10T08:23:04.482Z,3.40
2022-10-10T08:25:31.953Z,3.42
2022-10-10T08:27:59.335Z,3.70
2022-10-10T08:30:26.730Z,3.63
2022-10-10T08:32:54.405Z,3.67
2022-10-10T08:35:21.848Z,3.55
2022-10-10T08:37:49.137Z,3.28
2022-10-10T08:40:20.293Z,3.70
2022-10-10T08:42:53.317Z,3.93
2022-10-10T08:45:25.662Z,3.85
2022-10-10T08:50:36.201Z,3.75
2022-10-10T08:53:11.021Z,4.00
2022-10-10T08:55:43.614Z,3.63
2022-10-10T08:58:13.804Z,3.70
2022-10-10T09:00:49.462Z,4.10
2022-10-10T09:03:37.709Z,3.63
2022-10-10T09:06:23.419Z,3.72
2022-10-10T09:09:08.644Z,3.75
2022-10-10T09:11:57.054Z,4.22
2022-10-10T09:14:59.799Z,4.38
2022-10-10T09:17:42.651Z,4.57
2022-10-10T09:20:26.931Z,3.47
2022-10-10T09:23:07.415Z,3.80
2022-10-10T09:25:46.223Z,3.90
2022-10-10T09:28:42.792Z,4.32
2022-10-10T09:31:21.727Z,4.22
2022-10-10T09:34:14.329Z,4.72
2022-10-10T09:36:42.186Z,4.85
2022-10-10T09:39:44.345Z,5.05
2022-10-10T09:42:14.285Z,4.47
2022-10-10T09:44:43.214Z,4.10
2022-10-10T09:47:15.744Z,4.20
2022-10-10T09:49:44.768Z,4.10
2022-10-10T09:52:25.979Z,4.20
2022-10-10T09:55:02.175Z,3.90
2022-10-10T09:57:38.349Z,4.13
2022-10-10T10:00:28.121Z,3.88
2022-10-10T10:03:16.650Z,3.60
2022-10-10T10:05:55.528Z,3.80
2022-10-10T10:08:26.694Z,3.60
2022-10-10T10:10:58.378Z,4.10
2022-10-10T10:13:31.737Z,3.40
2022-10-10T10:16:01.411Z,3.58
2022-10-10T10:18:31.912Z,3.90
2022-10-10T10:21:02.183Z,3.42
2022-10-10T10:23:44.054Z,3.55
2022-10-10T10:26:28.222Z,3.08
2022-10-10T10:28:57.808Z,3.20
2022-10-10T10:31:50.457Z,2.65
2022-10-10T10:34:40.933Z,3.58
2022-10-10T10:37:20.099Z,3.28
2022-10-10T10:40:15.352Z,3.30
2022-10-10T10:42:52.181Z,3.70
2022-10-10T10:45:36.181Z,3.25
2022-10-10T10:48:28.383Z,3.63
2022-10-10T10:51:00.728Z,3.60
2022-10-10T10:53:44.343Z,3.22
2022-10-10T10:56:27.062Z,3.55
2022-10-10T11:02:54.362Z,3.40
2022-10-10T11:05:41.273Z,3.00
2022-10-10T11:08:18.476Z,3.17
2022-10-10T11:11:04.975Z,3.33
2022-10-10T11:13:49.445Z,3.00
2022-10-10T11:16:43.925Z,2.78
2022-10-10T11:19:28.272Z,2.90
2022-10-10T11:22:13.367Z,3.17
2022-10-10T11:24:43.563Z,2.88
2022-10-10T11:27:17.753Z,2.92
2022-10-10T11:30:00.200Z,3.10
2022-10-10T11:32:43.156Z,2.83
2022-10-10T11:35:24.760Z,3.28
2022-10-10T11:37:59.235Z,2.80
2022-10-10T11:40:33.564Z,3.30
2022-10-10T11:43:15.504Z,3.13
2022-10-10T11:45:53.641Z,3.40
2022-10-10T11:48:40.165Z,2.85
2022-10-10T11:51:19.805Z,3.13
2022-10-10T11:53:52.320Z,2.83
2022-10-10T11:56:28.702Z,2.95
2022-10-10T11:59:05.585Z,3.20
2022-10-10T12:01:55.522Z,2.95
2022-10-10T12:04:23.491Z,3.00
2022-10-10T12:07:02.162Z,2.75
2022-10-10T12:09:39.676Z,3.28
2022-10-10T12:12:13.806Z,2.80
2022-10-10T12:14:46.780Z,2.78
2022-10-10T12:17:43.543Z,3.10
2022-10-10T12:20:16.858Z,3.30
2022-10-10T12:22:44.232Z,3.00
2022-10-10T12:25:22.465Z,2.80
2022-10-10T12:28:13.275Z,2.85
2022-10-10T12:30:57.718Z,2.72
2022-10-10T12:33:31.036Z,2.85
2022-10-10T12:36:18.407Z,2.88
2022-10-10T12:39:01.152Z,3.22
2022-10-10T12:41:47.710Z,2.70
2022-10-10T12:44:15.132Z,2.58
2022-10-10T12:46:43.123Z,2.78
2022-10-10T12:49:25.265Z,3.03
2022-10-10T12:54:33.486Z,2.90
2022-10-10T12:57:09.274Z,3.70
2022-10-10T12:59:38.064Z,2.65
2022-10-10T13:02:27.337Z,2.80
2022-10-10T13:04:58.478Z,3.08
2022-10-10T13:07:26.360Z,2.80
2022-10-10T13:09:57.551Z,3.30
2022-10-10T13:12:30.895Z,2.90
2022-10-10T13:14:58.367Z,2.92
2022-10-10T13:17:31.646Z,3.03
2022-10-10T13:20:02.291Z,3.50
2022-10-10T13:22:32.051Z,3.33
2022-10-10T13:25:01.037Z,3.03
2022-10-10T13:27:35.040Z,2.85
2022-10-10T13:30:05.440Z,2.83
2022-10-10T13:32:35.914Z,3.33
2022-10-10T13:35:25.491Z,2.58
2022-10-10T13:37:59.326Z,3.05
2022-10-10T13:40:27.947Z,2.88
2022-10-10T13:42:55.574Z,3.10
2022-10-10T13:45:29.263Z,2.90
2022-10-10T13:48:01.078Z,3.03
2022-10-10T13:50:33.454Z,3.20
2022-10-10T13:53:23.756Z,2.97
2022-10-10T13:56:25.554Z,3.20
2022-10-10T13:58:55.662Z,2.88
2022-10-10T14:01:40.080Z,3.13
2022-10-10T14:04:13.486Z,2.90
2022-10-10T14:06:52.755Z,3.40
2022-10-10T14:09:26.410Z,2.80
2022-10-10T14:11:55.484Z,3.72
2022-10-10T14:14:31.886Z,3.17
2022-10-10T14:17:01.176Z,3.50
2022-10-10T14:19:29.870Z,3.10
2022-10-10T14:21:57.499Z,3.10
2022-10-10T14:24:27.868Z,3.00
2022-10-10T14:26:55.466Z,2.95
2022-10-10T14:29:23.415Z,3.58
2022-10-10T14:31:50.722Z,3.72
2022-10-10T14:34:18.096Z,3.22
2022-10-10T14:36:48.283Z,3.20
2022-10-10T14:39:19.790Z,3.08
2022-10-10T14:41:47.181Z,3.20
2022-10-10T14:44:14.548Z,3.33
2022-10-10T14:46:41.961Z,3.15
2022-10-10T14:49:20.350Z,3.22
2022-10-10T14:51:48.223Z,3.60
2022-10-10T14:54:15.950Z,3.13
2022-10-10T14:57:06.857Z,3.08
2022-10-10T14:59:48.013Z,3.53
2022-10-10T15:02:22.485Z,3.38
2022-10-10T15:04:50.560Z,3.88
2022-10-10T15:07:19.000Z,4.03
2022-10-10T15:10:32.178Z,3.95
2022-10-10T15:12:37.590Z,4.00
2022-10-10T15:15:06.041Z,3.95
2022-10-10T15:17:36.153Z,3.50
2022-10-10T15:20:05.822Z,3.80
2022-10-10T15:22:35.907Z,3.50
2022-10-10T15:25:05.127Z,3.97
2022-10-10T15:27:32.902Z,3.80
2022-10-10T15:30:00.729Z,3.67
2022-10-10T15:32:28.290Z,3.90
2022-10-10T15:34:56.143Z,4.00
2022-10-10T15:37:27.248Z,3.70
2022-10-10T15:39:54.619Z,3.80
2022-10-10T15:42:23.289Z,3.50
2022-10-10T15:44:51.309Z,3.35
2022-10-10T15:47:19.666Z,3.58
2022-10-10T15:49:47.549Z,3.58
2022-10-10T15:52:15.174Z,3.83
2022-10-10T15:54:42.578Z,3.50
2022-10-10T15:57:09.942Z,3.42
2022-10-10T15:59:40.432Z,3.35
2022-10-10T16:02:12.187Z,3.42
2022-10-10T16:04:39.951Z,3.30
2022-10-10T16:09:55.032Z,3.45
2022-10-10T16:12:25.028Z,4.03
2022-10-10T16:14:52.392Z,2.95
2022-10-10T16:17:23.299Z,3.80
2022-10-10T16:19:51.431Z,3.35
2022-10-10T16:22:18.915Z,3.97
2022-10-10T16:24:54.059Z,3.55
2022-10-10T16:27:34.167Z,3.55
2022-10-10T16:30:01.618Z,3.63
2022-10-10T16:32:28.958Z,3.92
2022-10-10T16:34:56.989Z,3.83
2022-10-10T16:37:24.509Z,3.50
2022-10-10T16:39:51.922Z,3.38
2022-10-10T16:42:19.264Z,4.20
2022-10-10T16:44:46.614Z,4.28
2022-10-10T16:47:14.045Z,4.20
2022-10-10T16:49:41.444Z,3.63
2022-10-10T16:52:08.789Z,4.50
2022-10-10T16:54:36.301Z,4.10
2022-10-10T16:57:03.850Z,4.35
2022-10-10T16:59:32.363Z,3.90
2022-10-10T17:01:59.755Z,4.25
2022-10-10T17:04:27.318Z,3.88
2022-10-10T17:06:54.775Z,3.92
2022-10-10T17:09:23.671Z,4.30
2022-10-10T17:11:51.623Z,4.60
2022-10-10T17:14:19.736Z,4.30
2022-10-10T17:19:34.338Z,4.90
2022-10-10T17:22:01.915Z,5.10
2022-10-10T17:24:29.307Z,4.32
2022-10-10T17:26:56.628Z,4.80
2022-10-10T17:29:24.742Z,4.80
2022-10-10T17:31:52.142Z,4.85
2022-10-10T17:34:19.972Z,4.78
2022-10-10T17:36:47.339Z,4.60
2022-10-10T17:39:14.882Z,4.53
2022-10-10T17:41:42.284Z,4.65
2022-10-10T17:44:10.888Z,5.63
2022-10-10T17:46:39.422Z,6.40
2022-10-10T17:49:09.722Z,6.18
2022-10-10T17:51:39.219Z,6.32
2022-10-10T17:54:07.467Z,5.68
2022-10-10T17:56:34.891Z,6.35
2022-10-10T17:59:06.437Z,6.55
2022-10-10T18:01:35.563Z,6.95
2022-10-10T18:04:03.813Z,6.35
2022-10-10T18:06:31.929Z,7.00
2022-10-10T18:09:00.003Z,6.93
2022-10-10T18:11:30.034Z,6.53
2022-10-10T18:14:00.532Z,6.00
2022-10-10T18:16:32.374Z,5.97
2022-10-10T18:19:00.266Z,6.60
2022-10-10T18:21:30.882Z,5.90
2022-10-10T18:23:58.395Z,6.10
2022-10-10T18:26:29.507Z,5.88
2022-10-10T18:29:00.048Z,5.85
2022-10-10T18:31:30.972Z,6.07
2022-10-10T18:33:58.639Z,5.78
2022-10-10T18:36:31.036Z,6.18
2022-10-10T18:39:04.259Z,6.43
2022-10-10T18:41:34.766Z,5.75
2022-10-10T18:44:05.320Z,6.70
2022-10-10T18:46:33.808Z,6.57
2022-10-10T18:49:02.607Z,6.40
2022-10-10T18:51:30.544Z,5.47
2022-10-10T18:54:08.548Z,6.20
2022-10-10T18:56:38.503Z,6.28
2022-10-10T18:59:08.394Z,6.43
2022-10-10T19:01:36.879Z,6.72
2022-10-10T19:04:06.686Z,6.40
2022-10-10T19:06:35.544Z,6.18
2022-10-10T19:09:04.520Z,5.75
2022-10-10T19:11:35.499Z,6.45
2022-10-10T19:14:05.076Z,6.50
2022-10-10T19:16:33.039Z,5.63
2022-10-10T19:19:02.063Z,5.95
2022-10-10T19:21:32.235Z,6.28
2022-10-10T19:24:00.561Z,5.85
2022-10-10T19:26:35.292Z,5.97
2022-10-10T19:29:07.000Z,5.65
2022-10-10T19:34:03.889Z,5.43
2022-10-10T19:36:31.350Z,6.32
2022-10-10T19:39:00.696Z,6.30
2022-10-10T19:41:29.750Z,6.43
2022-10-10T19:43:58.608Z,5.53
2022-10-10T19:46:27.588Z,5.90
2022-10-10T19:48:58.069Z,5.82
2022-10-10T19:51:26.862Z,6.20
2022-10-10T19:53:54.775Z,5.93
2022-10-10T19:56:26.509Z,6.72
2022-10-10T19:58:59.254Z,6.20
2022-10-10T20:01:29.967Z,6.43
2022-10-10T20:03:58.550Z,6.43
2022-10-10T20:06:26.702Z,7.10
2022-10-10T20:08:54.191Z,6.00
2022-10-10T20:11:23.155Z,6.70
2022-10-10T20:13:54.984Z,6.32
2022-10-10T20:16:25.083Z,7.22
2022-10-10T20:18:53.364Z,6.90
2022-10-10T20:21:24.403Z,7.30
2022-10-10T20:23:52.016Z,7.38
2022-10-10T20:26:21.800Z,6.63
2022-10-10T20:28:51.158Z,6.72
2022-10-10T20:31:24.231Z,6.93
2022-10-10T20:33:53.542Z,7.00
2022-10-10T20:36:22.661Z,6.88
2022-10-10T20:38:53.511Z,7.45
2022-10-10T20:41:22.295Z,7.28
2022-10-10T20:43:50.054Z,7.22
2022-10-10T20:46:18.829Z,7.40
2022-10-10T20:48:46.195Z,6.78
2022-10-10T20:51:14.093Z,7.22
2022-10-10T20:53:44.325Z,7.05
2022-10-10T20:56:12.883Z,6.93
2022-10-10T20:58:41.065Z,7.03
2022-10-10T21:01:10.643Z,7.80
2022-10-10T21:03:39.353Z,7.05
2022-10-10T21:06:10.703Z,6.90
2022-10-10T21:08:38.237Z,7.40
2022-10-10T21:11:08.913Z,7.18
2022-10-10T21:13:38.675Z,7.13
2022-10-10T21:16:11.381Z,7.38
2022-10-10T21:18:39.327Z,6.72
2022-10-10T21:21:07.531Z,6.97
2022-10-10T21:23:37.782Z,6.82
2022-10-10T21:26:10.325Z,6.05
2022-10-10T21:28:40.915Z,7.68
2022-10-10T21:31:14.128Z,7.00
2022-10-10T21:33:42.083Z,6.00
2022-10-10T21:36:09.980Z,6.15
2022-10-10T21:38:38.238Z,6.85
2022-10-10T21:41:07.669Z,6.40
2022-10-10T21:43:38.231Z,6.05
2022-10-10T21:46:08.764Z,6.30
2022-10-10T21:48:36.549Z,6.05
2022-10-10T21:51:04.509Z,6.35
2022-10-10T21:53:32.856Z,6.05
2022-10-10T21:56:06.282Z,6.43
2022-10-10T21:58:39.593Z,6.40
2022-10-10T22:01:18.666Z,5.80
2022-10-10T22:03:50.934Z,7.20
2022-10-10T22:08:49.658Z,6.15
2022-10-10T22:11:19.832Z,5.90
2022-10-10T22:13:48.214Z,6.32
2022-10-10T22:16:15.885Z,6.18
2022-10-10T22:18:43.342Z,6.32
2022-10-10T22:21:15.081Z,6.65
2022-10-10T22:23:44.223Z,6.55
2022-10-10T22:26:14.187Z,6.55
2022-10-10T22:28:41.880Z,6.85
2022-10-10T22:31:11.827Z,6.55
2022-10-10T22:33:39.316Z,6.57
2022-10-10T22:36:07.919Z,6.05
2022-10-10T22:38:41.162Z,6.35
2022-10-10T22:41:09.933Z,6.30
2022-10-10T22:43:37.963Z,6.28
2022-10-10T22:46:05.848Z,6.07
2022-10-10T22:48:34.132Z,6.60
2022-10-10T22:51:11.408Z,6.05
2022-10-10T22:53:40.100Z,6.43
2022-10-10T22:56:08.801Z,6.40
2022-10-10T22:58:36.946Z,6.53
2022-10-10T23:01:09.470Z,5.68
2022-10-10T23:03:36.998Z,6.30
2022-10-10T23:06:04.971Z,6.38
2022-10-10T23:08:33.129Z,5.68
2022-10-10T23:11:01.385Z,5.95
2022-10-10T23:13:28.792Z,6.00
2022-10-10T23:15:56.296Z,5.95
2022-10-10T23:18:23.721Z,5.97
2022-10-10T23:20:51.152Z,5.60
2022-10-10T23:23:19.103Z,5.55
2022-10-10T23:25:47.608Z,5.80
2022-10-10T23:28:16.301Z,5.85
2022-10-10T23:31:01.487Z,5.60
2022-10-10T23:33:33.267Z,5.75
2022-10-10T23:36:26.665Z,6.20
2022-10-10T23:39:09.608Z,6.10
2022-10-10T23:41:48.092Z,5.75
2022-10-10T23:44:29.724Z,6.18
2022-10-10T23:47:07.717Z,5.95
2022-10-10T23:49:45.802Z,6.00
2022-10-10T23:52:24.030Z,5.72
2022-10-10T23:55:03.395Z,5.75
2022-10-10T23:57:45.067Z,6.45
